Terminal Aerodrome Forecast
Issued by NWS

Home | Current Version | Previous Version | Text Only | Print | Product List | Glossary Off
Versions: 1 2 3 4 5 6 7 8 9 10 11 12 13 14 15 16 17 18 19 20 21 22 23 24 25

000
FTUS43 KICT 181142 CCA
TAFCNU
TAF COR
KCNU 181142Z 1812/1912 16007KT P6SM SCT250
     FM181500 18015G22KT P6SM SCT250
     FM181800 18020G30KT P6SM SCT250
     FM190200 18018G25KT P6SM BKN015 WS020/20050KT
     FM190600 18020G27KT P6SM OVC008 WS020/21050KT=

USA.gov is the U.S. government's official web portal to all federal, state and local government web resources and services.